Time;durP1;ratioP1;P1;durP2;ratioP2;P2;SDS_P1;SDS_P2;PMS_P1;PMS_P2;Temp;Humidity;BMP_temperature;BMP_pressure;BME280_temperature;BME280_humidity;BME280_pressure;Samples;Min_cycle;Max_cycle;Signal;HPM_P1;HPM_P2
2022/01/20 00:02:41;;;;;;;5.90;4.25;;;;;;;3.90;88.89;101350.34;5051450;28;20146;-82
2022/01/20 00:23:08;;;;;;;6.40;3.80;;;;;;;3.96;88.92;101361.47;5055486;28;20047;-82
2022/01/20 00:27:05;;;;;;;7.13;3.55;;;;;;;4.22;87.59;101385.34;5057578;28;20051;-82
2022/01/20 00:31:26;;;;;;;6.25;3.80;;;;;;;4.22;87.54;101383.59;5059352;28;20512;-82
2022/01/20 00:33:50;;;;;;;5.70;3.40;;;;;;;4.12;87.66;101379.41;5058229;28;20139;-80
2022/01/20 00:40:16;;;;;;;4.68;3.30;;;;;;;4.05;88.38;101380.34;5038719;28;20162;-81
2022/01/20 00:43:21;;;;;;;5.85;3.75;;;;;;;3.91;88.62;101372.75;5030352;28;20767;-81
2022/01/20 00:46:24;;;;;;;4.78;3.05;;;;;;;3.91;88.40;101372.75;5018040;28;20507;-80
2022/01/20 00:49:27;;;;;;;5.93;4.05;;;;;;;3.94;88.19;101362.38;5018519;28;20098;-81
2022/01/20 00:52:33;;;;;;;;;;;;;;;3.85;88.06;101373.66;5048941;28;20050;-81
2022/01/20 00:55:39;;;;;;;5.63;2.90;;;;;;;3.69;87.99;101377.28;5058339;28;19922;-81
2022/01/20 00:58:43;;;;;;;7.75;4.18;;;;;;;3.67;87.52;101384.19;5070357;28;20051;-81
2022/01/20 01:01:46;;;;;;;9.57;4.00;;;;;;;3.52;87.64;101385.22;5018048;28;20140;-81
2022/01/20 01:04:55;;;;;;;7.80;3.15;;;;;;;3.51;88.18;101383.53;5017675;28;20052;-81
2022/01/20 01:07:58;;;;;;;8.18;4.35;;;;;;;3.50;88.20;101387.81;5029388;28;20076;-81
2022/01/20 01:11:02;;;;;;;7.80;3.92;;;;;;;3.56;87.04;101378.28;5005896;28;20045;-81
2022/01/20 01:14:06;;;;;;;;;;;;;;;3.46;87.07;101390.44;5007050;28;20056;-81
2022/01/20 01:20:18;;;;;;;11.50;4.85;;;;;;;3.22;86.96;101386.34;5038169;28;20422;-81
2022/01/20 01:23:23;;;;;;;8.75;4.22;;;;;;;3.11;87.64;101386.44;5049164;28;20493;-81
2022/01/20 01:26:28;;;;;;;15.45;4.40;;;;;;;3.10;86.81;101397.66;5048843;28;20055;-81
2022/01/20 01:30:01;;;;;;;10.57;4.72;;;;;;;3.12;86.83;101410.53;5048210;28;20090;-82
2022/01/20 01:33:04;;;;;;;11.13;5.20;;;;;;;3.23;86.46;101419.94;5055208;28;20121;-81
2022/01/20 01:36:12;;;;;;;17.35;5.75;;;;;;;3.36;86.08;101418.09;5037852;28;20083;-81
2022/01/20 01:39:16;;;;;;;18.02;7.68;;;;;;;3.01;88.64;101423.53;5037228;28;20074;-81
2022/01/20 01:42:26;;;;;;;22.13;8.82;;;;;;;3.21;88.77;101444.06;5037457;28;20097;-81
2022/01/20 01:45:34;;;;;;;16.88;8.25;;;;;;;3.25;88.70;101441.47;5026432;28;20410;-81
2022/01/20 01:48:42;;;;;;;19.98;8.40;;;;;;;3.42;88.32;101440.47;5036871;28;20051;-81
2022/01/20 01:51:46;;;;;;;19.83;8.27;;;;;;;3.43;88.49;101442.19;5037378;28;20083;-80
2022/01/20 01:54:49;;;;;;;14.50;7.32;;;;;;;3.44;88.52;101438.72;5037044;28;20138;-81
2022/01/20 01:57:53;;;;;;;15.18;7.15;;;;;;;3.43;88.46;101440.44;5048294;28;20573;-81
2022/01/20 02:00:59;;;;;;;15.20;7.25;;;;;;;3.31;88.90;101432.78;4994609;28;20506;-81
2022/01/20 02:04:14;;;;;;;12.18;5.80;;;;;;;3.37;88.77;101443.09;5032189;28;20671;-80
2022/01/20 02:07:46;;;;;;;16.17;5.97;;;;;;;3.25;89.21;101445.75;5025956;28;20141;-81
2022/01/20 02:20:56;;;;;;;9.52;4.57;;;;;;;3.21;88.31;101451.81;5039437;28;20574;-80
2022/01/20 02:24:02;;;;;;;15.02;6.05;;;;;;;3.12;88.19;101437.22;5025452;28;20169;-81
2022/01/20 02:27:08;;;;;;;14.27;4.95;;;;;;;3.11;88.19;101443.28;5036473;28;20048;-80
2022/01/20 02:30:18;;;;;;;19.27;6.07;;;;;;;3.02;88.20;101448.50;5016692;28;20075;-81
2022/01/20 02:33:27;;;;;;;15.38;5.60;;;;;;;2.87;87.90;101454.63;5016622;28;20056;-81
2022/01/20 02:36:32;;;;;;;16.65;4.80;;;;;;;2.85;87.86;101453.78;5016636;28;20131;-81
2022/01/20 02:46:08;;;;;;;14.23;5.35;;;;;;;2.58;87.55;101451.31;5019587;28;20146;-81
2022/01/20 02:49:14;;;;;;;17.10;5.15;;;;;;;2.59;87.41;101459.09;5040430;28;20048;-81
2022/01/20 02:52:20;;;;;;;17.52;5.70;;;;;;;2.68;87.22;101460.75;5040290;28;20071;-81
2022/01/20 02:55:24;;;;;;;13.13;4.93;;;;;;;2.75;86.62;101458.13;5040442;28;20553;-81
2022/01/20 02:58:28;;;;;;;22.08;5.53;;;;;;;2.78;86.19;101442.63;5033855;28;20079;-81
2022/01/20 03:01:32;;;;;;;;;;;;;;;2.78;86.04;101439.19;5007025;28;20115;-81
2022/01/20 03:04:38;;;;;;;20.55;6.28;;;;;;;2.79;85.91;101430.56;4998042;28;19919;-81
2022/01/20 03:07:47;;;;;;;13.90;5.88;;;;;;;2.72;85.98;101439.22;5016723;28;20048;-81
2022/01/20 03:10:51;;;;;;;23.20;5.22;;;;;;;2.58;86.50;101443.56;5039679;28;20059;-81
2022/01/20 03:13:57;;;;;;;14.77;6.40;;;;;;;2.48;86.85;101440.19;5052276;28;20055;-81
2022/01/20 03:17:01;;;;;;;;;;;;;;;2.48;86.69;101440.19;5051394;28;20036;-81
2022/01/20 03:20:05;;;;;;;20.50;8.25;;;;;;;2.37;87.08;101436.81;5051110;28;19995;-80
2022/01/20 03:23:09;;;;;;;12.73;6.40;;;;;;;2.27;86.95;101434.25;5050531;28;20048;-81
2022/01/20 03:26:12;;;;;;;20.30;7.85;;;;;;;2.33;87.00;101448.88;5051492;28;20091;-81
2022/01/20 03:29:16;;;;;;;18.85;7.45;;;;;;;2.23;87.26;101442.00;5008513;28;20048;-81
2022/01/20 03:32:20;;;;;;;15.25;6.30;;;;;;;2.04;87.83;101452.38;5019809;28;20068;-81
2022/01/20 03:35:23;;;;;;;15.07;6.70;;;;;;;2.30;87.18;101443.72;5008367;28;20048;-81
2022/01/20 03:38:46;;;;;;;13.98;5.57;;;;;;;2.44;86.48;101451.41;5032078;28;20695;-81
2022/01/20 03:41:52;;;;;;;11.65;5.18;;;;;;;2.42;86.20;101443.63;5019244;28;20044;-81
2022/01/20 03:44:59;;;;;;;15.98;6.10;;;;;;;2.54;86.21;101422.94;5020090;28;20412;-81
2022/01/20 03:48:09;;;;;;;14.38;6.22;;;;;;;2.53;86.10;101425.53;5019376;28;20099;-81
2022/01/20 03:51:12;;;;;;;9.20;4.45;;;;;;;2.62;85.73;101424.66;5019570;28;20103;-81
2022/01/20 03:54:16;;;;;;;11.98;5.68;;;;;;;2.45;86.27;101437.59;5019299;28;20125;-81
2022/01/20 03:57:55;;;;;;;13.68;5.05;;;;;;;2.52;86.23;101435.00;4995092;28;20068;-81
2022/01/20 04:01:04;;;;;;;9.55;4.75;;;;;;;2.54;85.95;101438.44;5039112;28;20454;-81
2022/01/20 04:04:29;;;;;;;12.23;5.63;;;;;;;2.58;85.84;101428.94;5038728;28;20564;-81
2022/01/20 04:07:48;;;;;;;10.85;5.40;;;;;;;2.29;86.68;101429.06;5026610;28;20465;-81
2022/01/20 04:10:53;;;;;;;11.75;5.93;;;;;;;2.43;86.97;101421.28;5050485;28;20047;-81
2022/01/20 04:13:57;;;;;;;9.07;5.72;;;;;;;2.32;87.71;101414.44;5038294;28;20043;-81
2022/01/20 04:17:06;;;;;;;9.65;4.45;;;;;;;2.46;87.59;101408.38;5027393;28;20564;-81
2022/01/20 04:20:10;;;;;;;9.43;4.93;;;;;;;2.56;87.06;101405.72;5027243;28;20678;-81
2022/01/20 04:23:14;;;;;;;11.60;5.25;;;;;;;2.57;86.98;101422.06;5038563;28;20041;-81
2022/01/20 04:26:19;;;;;;;10.77;5.72;;;;;;;2.58;86.96;101402.28;5018611;28;20053;-81
2022/01/20 04:29:23;;;;;;;11.45;5.47;;;;;;;2.74;86.60;101398.72;5037127;28;20115;-81
2022/01/20 04:32:26;;;;;;;16.20;7.45;;;;;;;2.64;87.09;101389.31;5050617;28;20044;-81
2022/01/20 04:35:31;;;;;;;16.88;6.75;;;;;;;2.57;87.59;101385.94;5052918;28;20036;-81
2022/01/20 04:38:35;;;;;;;15.68;6.88;;;;;;;2.75;87.72;101400.47;5024742;28;20043;-81
2022/01/20 04:41:40;;;;;;;12.25;6.28;;;;;;;2.62;88.09;101381.59;5027445;28;20040;-81
2022/01/20 04:44:52;;;;;;;18.42;7.30;;;;;;;2.85;88.03;101375.44;5038721;28;20083;-81
2022/01/20 04:57:33;;;;;;;31.92;4.97;;;;;;;3.23;87.51;101388.06;5030750;28;20662;-81
2022/01/20 05:00:37;;;;;;;26.67;5.65;;;;;;;3.35;87.58;101397.44;5039035;28;20638;-81
2022/01/20 05:04:02;;;;;;;18.60;4.63;;;;;;;3.45;88.40;101410.28;5029165;28;20052;-80
2022/01/20 05:07:36;;;;;;;24.63;4.82;;;;;;;3.58;87.97;101384.31;5020008;28;20059;-81
2022/01/20 05:10:40;;;;;;;19.85;4.88;;;;;;;3.52;86.04;101384.38;5037236;28;20094;-82
2022/01/20 05:13:47;;;;;;;26.42;5.22;;;;;;;3.69;85.72;101390.22;5037215;28;20409;-82
2022/01/20 05:16:55;;;;;;;24.80;4.72;;;;;;;3.71;87.09;101391.06;5037679;28;20545;-81
2022/01/20 05:20:02;;;;;;;14.82;3.40;;;;;;;3.79;86.94;101386.66;5037517;28;20063;-82
2022/01/20 05:26:42;;;;;;;24.23;5.22;;;;;;;3.71;83.97;101404.88;1441757;26;20058;-85
2022/01/20 05:29:46;;;;;;;17.90;3.15;;;;;;;3.71;84.20;101396.25;4952091;28;20446;-85
2022/01/20 05:32:52;;;;;;;27.27;4.35;;;;;;;3.71;84.47;101399.69;4961094;28;20045;-84
2022/01/20 05:35:56;;;;;;;17.63;2.95;;;;;;;3.83;85.23;101396.13;4981236;28;20091;-85
2022/01/20 05:39:50;;;;;;;20.77;3.30;;;;;;;3.79;85.29;101394.44;5000927;28;20084;-85
2022/01/20 05:43:02;;;;;;;18.45;3.65;;;;;;;3.81;85.36;101403.03;4966230;28;20060;-85
2022/01/20 05:46:05;;;;;;;18.50;3.67;;;;;;;3.89;83.83;101406.41;4977616;28;20093;-85
2022/01/20 05:49:11;;;;;;;22.48;3.70;;;;;;;3.84;83.54;101418.53;4997664;28;20439;-85
2022/01/20 05:52:29;;;;;;;27.35;5.03;;;;;;;3.83;82.42;101398.72;4978715;28;20101;-84
2022/01/20 05:55:35;;;;;;;21.88;4.15;;;;;;;3.87;81.35;101391.78;4955031;28;20112;-85
2022/01/20 05:58:39;;;;;;;19.08;4.57;;;;;;;3.89;83.11;101398.66;4978287;28;20045;-85
2022/01/20 06:01:53;;;;;;;13.73;2.95;;;;;;;3.94;83.22;101396.84;4977845;28;20453;-85
2022/01/20 06:04:57;;;;;;;12.45;3.13;;;;;;;3.88;83.19;101398.66;4978106;28;20045;-85
2022/01/20 06:08:06;;;;;;;13.68;2.97;;;;;;;3.89;83.32;101396.06;4967693;28;20077;-85
2022/01/20 06:11:11;;;;;;;18.80;4.78;;;;;;;3.97;82.31;101394.22;4958858;28;20145;-85
2022/01/20 06:14:21;;;;;;;19.73;3.90;;;;;;;4.06;83.94;101398.47;4964310;28;20052;-85
2022/01/20 06:17:42;;;;;;;16.88;2.55;;;;;;;3.94;83.68;101388.25;4989368;28;20053;-85
2022/01/20 06:20:55;;;;;;;18.15;3.30;;;;;;;3.90;84.94;101382.25;4976334;28;20049;-85
2022/01/20 06:24:00;;;;;;;15.85;3.25;;;;;;;3.88;84.62;101394.34;4958355;28;20553;-85
2022/01/20 06:27:11;;;;;;;16.40;2.80;;;;;;;3.72;83.36;101385.03;4973413;28;20736;-84
2022/01/20 06:30:27;;;;;;;19.95;3.88;;;;;;;3.77;82.64;101391.03;4996977;28;20036;-85
2022/01/20 06:33:38;;;;;;;14.68;3.83;;;;;;;3.63;82.18;101398.03;4997892;28;20077;-84
2022/01/20 06:36:51;;;;;;;19.35;3.03;;;;;;;3.74;82.81;101396.22;5002139;28;20041;-84
2022/01/20 06:40:02;;;;;;;15.23;4.65;;;;;;;3.74;83.65;101401.41;4997922;28;20416;-84
2022/01/20 06:43:08;;;;;;;17.75;3.65;;;;;;;3.74;82.14;101419.50;4986460;28;20040;-84
2022/01/20 06:46:32;;;;;;;8.77;1.90;;;;;;;3.64;82.03;101420.47;4998163;28;20049;-84
2022/01/20 06:49:49;;;;;;;13.00;1.85;;;;;;;3.40;83.33;101426.69;4965512;28;20077;-84
2022/01/20 06:53:02;;;;;;;12.88;2.20;;;;;;;3.28;83.37;101425.06;4996255;28;20053;-83
2022/01/20 06:56:09;;;;;;;17.40;3.20;;;;;;;3.44;83.78;101418.03;4975516;28;20084;-84
2022/01/20 06:59:19;;;;;;;19.20;4.30;;;;;;;3.53;83.63;101427.44;4996762;28;20164;-84
2022/01/20 07:02:30;;;;;;;13.25;3.38;;;;;;;3.46;85.20;101431.81;4986285;28;20083;-84
2022/01/20 07:05:37;;;;;;;13.43;2.88;;;;;;;3.56;85.05;101437.78;5008701;28;20080;-83
2022/01/20 07:08:42;;;;;;;18.13;3.55;;;;;;;3.61;83.42;101431.69;4996684;28;20578;-84
2022/01/20 07:11:50;;;;;;;15.45;3.35;;;;;;;3.65;83.52;101442.88;4975223;28;20503;-84
2022/01/20 07:14:54;;;;;;;18.40;5.18;;;;;;;3.75;83.43;101448.81;4984604;28;20052;-83
2022/01/20 07:17:57;;;;;;;;;;;;;;;3.75;84.52;101465.19;4997082;28;20049;-84
2022/01/20 07:21:03;;;;;;;14.93;3.78;;;;;;;3.85;83.89;101466.81;4982469;28;20482;-83
2022/01/20 07:24:17;;;;;;;18.02;4.97;;;;;;;3.85;83.50;101481.47;4996738;28;20104;-83
2022/01/20 07:27:20;;;;;;;21.98;3.58;;;;;;;3.71;83.59;101484.19;4986583;28;20045;-83
2022/01/20 07:30:25;;;;;;;15.27;3.50;;;;;;;3.76;84.17;101490.16;4999250;28;20095;-83
2022/01/20 07:33:33;;;;;;;19.05;3.45;;;;;;;3.66;84.01;101491.97;4989526;28;20053;-83
2022/01/20 07:36:37;;;;;;;12.38;2.60;;;;;;;3.84;82.84;101480.63;4989884;28;20097;-83
2022/01/20 07:39:41;;;;;;;17.40;3.45;;;;;;;3.92;83.12;101489.19;5000210;28;20096;-82
2022/01/20 07:42:45;;;;;;;13.65;3.08;;;;;;;4.03;83.26;101491.66;4988238;28;20124;-83
2022/01/20 07:45:56;;;;;;;15.52;2.70;;;;;;;3.96;83.92;101503.81;5001421;28;20452;-83
2022/01/20 07:49:04;;;;;;;10.70;3.90;;;;;;;3.85;83.15;101503.03;5008354;28;20091;-83
2022/01/20 07:52:10;;;;;;;14.93;4.70;;;;;;;3.85;84.26;101518.53;4989980;28;20057;-83
2022/01/20 07:55:14;;;;;;;13.07;3.25;;;;;;;4.03;83.48;101527.03;4987760;28;20052;-84
2022/01/20 07:59:08;;;;;;;10.25;3.25;;;;;;;3.96;82.79;101542.63;4998600;28;20056;-84
2022/01/20 08:02:16;;;;;;;15.25;2.80;;;;;;;3.99;84.24;101571.91;4990412;28;20357;-83
2022/01/20 08:05:20;;;;;;;10.55;3.30;;;;;;;4.03;82.87;101595.19;4968116;28;20693;-84
2022/01/20 08:08:23;;;;;;;8.45;3.03;;;;;;;3.55;81.31;101596.38;4969035;28;20053;-84
2022/01/20 08:11:47;;;;;;;8.68;2.25;;;;;;;3.50;79.13;101604.16;4980489;28;20053;-83
2022/01/20 08:15:09;;;;;;;7.70;1.95;;;;;;;3.50;79.01;101594.66;4980263;28;20057;-84
2022/01/20 08:18:18;;;;;;;12.15;2.80;;;;;;;3.72;80.81;101584.19;4979720;28;20401;-84
2022/01/20 08:21:22;;;;;;;16.05;2.85;;;;;;;3.79;79.11;101588.44;4976027;28;20189;-85
2022/01/20 08:24:27;;;;;;;9.18;2.00;;;;;;;3.90;80.31;101583.22;4988534;28;20044;-84
2022/01/20 08:27:37;;;;;;;13.43;2.55;;;;;;;3.90;78.96;101597.00;4998854;28;20072;-83
2022/01/20 08:30:41;;;;;;;9.63;3.88;;;;;;;4.00;79.42;101617.63;4999944;28;20085;-82
2022/01/20 08:33:48;;;;;;;11.63;3.38;;;;;;;4.00;78.21;101615.91;4989164;28;20076;-84
2022/01/20 08:37:03;;;;;;;11.35;2.70;;;;;;;4.02;77.30;101615.88;4988135;28;20037;-84
2022/01/20 08:40:12;;;;;;;11.50;3.53;;;;;;;3.86;81.09;101617.72;4977265;28;20041;-83
2022/01/20 08:43:16;;;;;;;9.13;2.90;;;;;;;3.87;77.61;101617.72;4988498;28;20092;-83
2022/01/20 08:46:21;;;;;;;11.20;3.30;;;;;;;3.84;80.72;101627.25;4999506;28;20057;-83
2022/01/20 08:49:25;;;;;;;11.10;3.55;;;;;;;3.96;80.09;101620.25;4998958;28;20156;-83
2022/01/20 08:52:33;;;;;;;14.40;4.43;;;;;;;3.72;80.21;101612.66;4968507;28;20142;-83
2022/01/20 08:55:37;;;;;;;16.00;3.55;;;;;;;3.50;76.62;101622.25;4988466;28;20056;-83
2022/01/20 08:58:52;;;;;;;12.38;3.38;;;;;;;3.69;79.29;101625.59;4978267;28;20661;-84
2022/01/20 09:01:55;;;;;;;19.00;6.53;;;;;;;3.88;77.27;101634.97;4998264;28;20044;-84
2022/01/20 09:05:00;;;;;;;11.82;3.90;;;;;;;3.85;77.10;101632.38;4987209;28;20052;-84
2022/01/20 09:08:19;;;;;;;13.75;4.10;;;;;;;3.86;75.75;101647.06;4989612;28;20625;-83
2022/01/20 09:11:37;;;;;;;20.10;4.55;;;;;;;3.78;75.23;101648.81;4995851;28;20092;-83
2022/01/20 09:18:16;;;;;;;25.10;9.70;;;;;;;4.10;75.03;101658.97;4997914;28;20370;-83
2022/01/20 09:21:23;;;;;;;18.95;3.78;;;;;;;3.78;71.59;101664.34;5000719;28;20079;-83
2022/01/20 09:24:32;;;;;;;13.60;3.22;;;;;;;3.73;72.81;101653.16;4987485;28;20072;-84
2022/01/20 09:27:39;;;;;;;13.35;3.08;;;;;;;3.63;72.55;101670.47;4956470;28;20056;-83
2022/01/20 09:30:45;;;;;;;132.40;77.20;;;;;;;3.62;72.91;101665.31;4981321;28;20125;-82
2022/01/20 09:33:49;;;;;;;14.85;3.85;;;;;;;3.61;71.76;101661.00;4982106;28;20068;-83
2022/01/20 09:36:54;;;;;;;19.80;4.82;;;;;;;3.74;71.61;101665.25;5008404;28;20095;-83
2022/01/20 09:40:00;;;;;;;17.75;3.35;;;;;;;3.78;71.91;101663.50;4985915;28;20084;-83
2022/01/20 09:43:18;;;;;;;11.95;3.40;;;;;;;3.56;71.45;101675.69;4987036;28;20136;-84
2022/01/20 09:46:25;;;;;;;18.25;3.90;;;;;;;3.78;71.59;101677.28;5007672;28;20296;-83
2022/01/20 09:49:43;;;;;;;14.45;4.10;;;;;;;3.79;72.66;101683.31;5002462;28;20096;-85
2022/01/20 09:53:00;;;;;;;15.63;3.33;;;;;;;3.77;71.77;101693.69;4978073;28;20044;-83
2022/01/20 09:56:34;;;;;;;17.70;4.10;;;;;;;3.78;77.07;101695.41;4978199;28;20049;-83
2022/01/20 09:59:41;;;;;;;16.10;5.85;;;;;;;3.92;75.16;101709.13;4978747;28;20129;-83
2022/01/20 10:02:54;;;;;;;14.45;5.00;;;;;;;3.76;71.20;101717.81;4967386;28;20045;-83
2022/01/20 10:06:01;;;;;;;15.88;3.78;;;;;;;3.85;72.53;101722.94;4977751;28;20097;-83
2022/01/20 10:09:06;;;;;;;24.08;5.15;;;;;;;3.71;74.20;101728.19;4980427;28;20049;-83
2022/01/20 10:12:33;;;;;;;19.42;4.60;;;;;;;3.95;72.75;101729.78;5000566;28;20100;-83
2022/01/20 10:16:15;;;;;;;12.35;2.67;;;;;;;4.16;73.74;101727.94;5007969;28;20047;-83
2022/01/20 10:19:32;;;;;;;19.08;4.13;;;;;;;4.07;71.11;101728.84;4995395;28;20125;-83
2022/01/20 10:27:13;;;;;;;19.42;3.80;;;;;;;3.61;68.58;101736.00;4965444;28;20084;-83
2022/01/20 10:30:28;;;;;;;15.27;3.90;;;;;;;3.58;69.50;101741.19;4965969;28;20508;-84
2022/01/20 10:33:45;;;;;;;18.48;5.65;;;;;;;3.78;69.47;101733.34;4977166;28;20049;-84
2022/01/20 10:36:54;;;;;;;24.52;5.95;;;;;;;3.94;70.93;101729.81;4984696;28;20440;-83
2022/01/20 10:40:13;;;;;;;;;;;;;;;3.74;69.66;101727.34;4985971;28;20041;-82
2022/01/20 10:43:24;;;;;;;13.18;3.80;;;;;;;3.72;68.30;101739.41;4985263;28;19920;-82
2022/01/20 10:46:40;;;;;;;16.67;2.25;;;;;;;3.67;66.83;101738.53;4996929;28;20057;-82
2022/01/20 10:49:45;;;;;;;17.67;3.55;;;;;;;3.82;67.67;101729.88;4988000;28;20115;-83
2022/01/20 10:52:52;;;;;;;10.48;2.90;;;;;;;3.85;66.98;101728.13;4985938;28;20123;-81
2022/01/20 10:56:05;;;;;;;13.52;2.55;;;;;;;3.43;66.13;101731.75;4985891;28;20558;-83
2022/01/20 10:59:09;;;;;;;22.60;3.25;;;;;;;3.33;66.81;101730.94;4996008;28;20396;-83
2022/01/20 11:02:38;;;;;;;13.57;2.83;;;;;;;3.39;66.46;101720.56;4999884;28;20567;-83
2022/01/20 11:05:46;;;;;;;12.82;2.88;;;;;;;3.39;66.60;101725.75;4969894;28;20053;-83
2022/01/20 11:08:54;;;;;;;14.65;3.08;;;;;;;3.44;66.91;101718.81;4969353;28;20109;-82
2022/01/20 11:12:09;;;;;;;9.77;2.17;;;;;;;3.59;66.06;101717.03;4982333;28;20044;-83
2022/01/20 11:15:43;;;;;;;12.30;2.28;;;;;;;3.62;66.46;101709.28;4993440;28;20085;-83
2022/01/20 11:18:47;;;;;;;14.30;4.30;;;;;;;3.63;63.90;101710.97;4985175;28;20674;-83
2022/01/20 11:22:03;;;;;;;13.40;3.80;;;;;;;3.79;63.10;101701.41;4987839;28;20567;-83
2022/01/20 11:25:09;;;;;;;12.70;3.53;;;;;;;3.84;64.30;101691.91;4988037;28;20076;-83
2022/01/20 11:28:24;;;;;;;10.00;1.80;;;;;;;3.67;62.14;101690.28;4978065;28;20129;-81
2022/01/20 11:31:34;;;;;;;13.20;3.33;;;;;;;3.74;63.02;101696.28;4989642;28;20048;-81
2022/01/20 11:35:01;;;;;;;15.65;2.95;;;;;;;3.67;64.61;101694.56;5000142;28;20662;-81
2022/01/20 11:38:05;;;;;;;12.73;2.55;;;;;;;3.53;65.02;101712.75;5012186;28;20386;-82
2022/01/20 11:41:13;;;;;;;14.50;4.15;;;;;;;3.45;68.16;101709.34;4998780;28;20482;-81
2022/01/20 11:44:26;;;;;;;12.30;3.28;;;;;;;3.26;68.38;101705.97;4987398;28;20096;-82
2022/01/20 11:48:24;;;;;;;13.13;5.00;;;;;;;3.50;69.93;101720.53;4646749;28;9999634;-83
2022/01/20 11:51:55;;;;;;;9.18;3.08;;;;;;;3.50;70.35;101726.53;4987507;28;20455;-83
2022/01/20 11:55:12;;;;;;;14.60;2.78;;;;;;;3.33;68.29;101736.09;5016273;28;20127;-83
2022/01/20 11:58:27;;;;;;;11.40;2.63;;;;;;;3.62;69.88;101742.91;5008640;28;20406;-84
2022/01/20 12:01:52;;;;;;;18.23;2.95;;;;;;;3.63;70.27;101765.31;5001131;28;20468;-83
2022/01/20 12:04:57;;;;;;;12.98;4.57;;;;;;;3.59;71.91;101774.81;5009002;28;20448;-79
2022/01/20 12:08:18;;;;;;;10.30;2.28;;;;;;;2.73;75.58;101779.25;5010835;28;20052;-79
2022/01/20 12:11:45;;;;;;;11.57;2.47;;;;;;;1.63;80.45;101775.56;5011569;28;20100;-80
2022/01/20 12:14:48;;;;;;;11.55;2.47;;;;;;;2.01;80.31;101746.47;5011182;28;20063;-80
2022/01/20 12:17:58;;;;;;;10.88;2.55;;;;;;;2.36;78.33;101752.53;4987903;28;20187;-80
2022/01/20 12:21:05;;;;;;;8.20;1.95;;;;;;;2.63;78.54;101743.97;4999284;28;20052;-81
2022/01/20 12:24:09;;;;;;;13.27;4.65;;;;;;;3.23;77.45;101749.91;4980355;28;20053;-81
2022/01/20 12:27:15;;;;;;;6.78;2.35;;;;;;;3.53;76.73;101743.78;4979823;28;20104;-80
2022/01/20 12:30:25;;;;;;;10.23;1.98;;;;;;;3.68;76.17;101755.81;5004270;28;20045;-81
2022/01/20 12:33:35;;;;;;;7.70;1.83;;;;;;;3.91;75.89;101751.38;4998822;28;20395;-80
2022/01/20 12:36:41;;;;;;;10.68;2.20;;;;;;;4.15;75.13;101754.72;5011815;28;20101;-81
2022/01/20 12:39:44;;;;;;;;;;;;;;;3.57;77.54;101755.81;5011092;28;20102;-80
2022/01/20 12:42:48;;;;;;;10.48;2.22;;;;;;;3.80;76.52;101737.66;4997892;28;19948;-81
2022/01/20 12:45:55;;;;;;;10.05;2.03;;;;;;;3.70;76.32;101730.78;4974130;28;20558;-81
2022/01/20 12:49:04;;;;;;;11.30;2.78;;;;;;;3.27;69.40;101733.53;4996991;28;20405;-80
2022/01/20 12:52:09;;;;;;;11.15;3.10;;;;;;;3.44;68.71;101730.88;4986362;28;20551;-81
2022/01/20 12:55:13;;;;;;;10.30;2.22;;;;;;;3.47;66.87;101723.97;4985975;28;20080;-81
2022/01/20 12:58:17;;;;;;;12.43;2.40;;;;;;;3.46;66.33;101717.09;4994954;28;20095;-80
2022/01/20 13:01:21;;;;;;;;;;;;;;;3.49;65.32;101730.00;4985116;28;20049;-79
2022/01/20 13:04:27;;;;;;;10.45;3.28;;;;;;;3.66;66.90;101739.44;5006322;28;19967;-80
2022/01/20 13:07:33;;;;;;;15.10;4.03;;;;;;;3.58;66.93;101754.13;4997911;28;20099;-87
2022/01/20 13:10:39;;;;;;;12.80;3.10;;;;;;;3.52;69.19;101756.75;4997396;28;20100;-84
2022/01/20 13:13:52;;;;;;;14.40;3.55;;;;;;;3.52;70.24;101741.22;5018170;28;20140;-87
2022/01/20 13:16:49;;;;;;;10.23;2.13;;;;;;;3.61;71.58;101738.59;5000126;23;20416;-73
2022/01/20 13:25:17;;;;;;;8.45;2.13;;;;;;;3.49;72.20;101742.94;4992617;28;20060;-74
2022/01/20 13:28:23;;;;;;;12.40;4.80;;;;;;;3.47;71.78;101744.66;4981628;28;20483;-74
2022/01/20 13:31:28;;;;;;;7.97;2.80;;;;;;;3.63;73.05;101752.38;4993408;28;20104;-74
2022/01/20 13:34:31;;;;;;;9.02;2.35;;;;;;;3.76;71.95;101754.03;4981248;28;20407;-74
2022/01/20 13:37:37;;;;;;;11.07;2.60;;;;;;;3.85;71.69;101766.06;4993477;28;20048;-74
2022/01/20 13:40:44;;;;;;;13.48;2.90;;;;;;;3.68;72.22;101761.84;4980304;28;20068;-74
2022/01/20 13:47:12;;;;;;;13.25;5.00;;;;;;;3.35;68.58;101754.19;4980889;28;20522;-74
2022/01/20 13:50:31;;;;;;;13.77;3.22;;;;;;;3.60;69.72;101754.97;4993254;28;20191;-74
2022/01/20 13:53:39;;;;;;;20.42;4.70;;;;;;;3.59;65.46;101738.59;4993273;28;20140;-74
2022/01/20 13:56:52;;;;;;;15.75;2.30;;;;;;;3.76;65.66;101740.25;4993251;28;20574;-74
2022/01/20 13:59:58;;;;;;;16.10;5.85;;;;;;;3.88;64.44;101741.03;4980834;28;20590;-74
2022/01/20 14:03:06;;;;;;;21.77;7.70;;;;;;;4.13;63.76;101727.97;4980965;28;20048;-74
2022/01/20 14:06:09;;;;;;;12.98;3.33;;;;;;;3.88;62.23;101724.66;4992114;28;20049;-74
2022/01/20 14:09:12;;;;;;;11.75;2.38;;;;;;;3.81;61.20;101730.75;4980935;28;20122;-74
2022/01/20 14:12:16;;;;;;;11.57;2.00;;;;;;;3.66;62.38;101723.91;4993018;28;20041;-74
2022/01/20 14:15:21;;;;;;;10.75;2.15;;;;;;;3.73;62.31;101725.59;4992507;28;20053;-74
2022/01/20 14:18:30;;;;;;;16.90;2.53;;;;;;;3.65;61.07;101717.88;4992881;28;20074;-74
2022/01/20 14:21:33;;;;;;;14.98;2.65;;;;;;;3.57;61.73;101723.94;4992879;28;20061;-74
2022/01/20 14:24:37;;;;;;;12.43;1.85;;;;;;;3.41;62.25;101721.41;4980746;28;20104;-74
2022/01/20 14:27:40;;;;;;;11.35;2.15;;;;;;;3.43;62.14;101730.03;4992778;28;20092;-74
2022/01/20 14:30:44;;;;;;;9.70;2.35;;;;;;;3.60;63.15;101727.38;4992709;28;20049;-74
2022/01/20 14:33:48;;;;;;;11.20;2.45;;;;;;;3.45;63.41;101720.56;4992614;28;20121;-74
2022/01/20 14:36:51;;;;;;;13.15;4.35;;;;;;;3.39;64.89;101725.75;4971307;28;20129;-74
2022/01/20 14:39:54;;;;;;;;;;;;;;;3.25;66.24;101725.78;4987607;28;20037;-74
2022/01/20 14:42:58;;;;;;;14.35;2.47;;;;;;;3.21;67.04;101736.13;4981852;28;19968;-74
2022/01/20 14:46:02;;;;;;;;;;;;;;;3.20;67.86;101745.63;4993149;28;20053;-74
2022/01/20 14:49:06;;;;;;;14.95;6.32;;;;;;;2.96;68.52;101738.75;5003787;28;19960;-75
2022/01/20 14:52:10;;;;;;;;;;;;;;;3.09;69.03;101741.31;5016631;28;20092;-77
2022/01/20 14:55:16;;;;;;;14.00;4.05;;;;;;;3.07;69.83;101743.06;5003987;28;19920;-75
2022/01/20 14:58:20;;;;;;;16.30;4.15;;;;;;;2.97;69.45;101753.41;4992371;28;20048;-74
2022/01/20 15:01:23;;;;;;;21.75;7.53;;;;;;;3.09;70.49;101751.66;5016009;28;20128;-75
2022/01/20 15:04:26;;;;;;;20.80;7.57;;;;;;;3.17;70.17;101757.69;5015956;28;20045;-74
2022/01/20 15:07:29;;;;;;;;;;;;;;;2.87;70.69;101767.22;5003910;28;20152;-75
2022/01/20 15:10:33;;;;;;;45.47;15.38;;;;;;;2.88;71.67;101774.09;4990836;28;20337;-74
2022/01/20 15:13:36;;;;;;;17.92;9.52;;;;;;;2.99;72.71;101772.34;5015650;28;20064;-75
2022/01/20 15:16:40;;;;;;;28.27;7.07;;;;;;;2.69;73.35;101772.38;5015314;28;20060;-74
2022/01/20 15:19:43;;;;;;;;;;;;;;;2.67;73.30;101772.34;5003951;28;20052;-74
2022/01/20 15:22:46;;;;;;;22.80;7.05;;;;;;;2.80;73.65;101766.31;5015599;28;19920;-75
2022/01/20 15:25:50;;;;;;;;;;;;;;;2.76;73.25;101779.25;5015872;28;20360;-74
2022/01/20 15:28:58;;;;;;;21.13;4.50;;;;;;;2.81;73.63;101769.78;5015362;28;20018;-75
2022/01/20 15:32:01;;;;;;;16.85;4.53;;;;;;;2.32;74.94;101772.31;4997929;28;20100;-75
2022/01/20 15:35:04;;;;;;;;;;;;;;;2.47;74.73;101779.25;5001804;28;20585;-75
2022/01/20 15:38:08;;;;;;;17.45;3.47;;;;;;;2.84;74.30;101776.66;4983627;28;19941;-75
2022/01/20 15:41:11;;;;;;;21.83;6.65;;;;;;;2.92;74.47;101786.13;4995725;28;20057;-75
2022/01/20 15:44:14;;;;;;;9.70;3.00;;;;;;;3.00;73.64;101781.84;4995641;28;20097;-75
2022/01/20 15:47:18;;;;;;;10.52;2.92;;;;;;;2.91;74.67;101789.59;4994823;28;20475;-75
2022/01/20 15:50:22;;;;;;;15.23;3.75;;;;;;;3.03;75.57;101792.16;4995689;28;20081;-75
2022/01/20 15:53:25;;;;;;;19.33;6.25;;;;;;;2.86;74.11;101804.22;4995365;28;20143;-76
2022/01/20 15:56:28;;;;;;;22.00;9.02;;;;;;;2.80;74.89;101791.28;4995280;28;20088;-75